Time;durP1;ratioP1;P1;durP2;ratioP2;P2;SDS_P1;SDS_P2;PMS_P1;PMS_P2;Temp;Humidity;BMP_temperature;BMP_pressure;BME280_temperature;BME280_humidity;BME280_pressure;Samples;Min_cycle;Max_cycle;Signal;HPM_P1;HPM_P2
2022/05/10 00:00:35;;;;;;;5.13;3.13;;;16.10;59.90;;;;;;5032072;28;20031;-72
2022/05/10 00:03:02;;;;;;;5.63;3.00;;;16.10;60.10;;;;;;5015858;28;20021;-70
2022/05/10 00:05:34;;;;;;;5.70;3.03;;;16.00;60.40;;;;;;5013560;28;20444;-70
2022/05/10 00:08:01;;;;;;;7.53;2.85;;;16.00;60.30;;;;;;5015262;28;20029;-71
2022/05/10 00:10:27;;;;;;;7.10;3.00;;;15.90;60.10;;;;;;5033125;28;20890;-71
2022/05/10 00:12:52;;;;;;;7.50;3.13;;;16.00;60.60;;;;;;5008086;28;20064;-72
2022/05/10 00:15:18;;;;;;;9.88;3.05;;;15.90;61.00;;;;;;5024090;28;20044;-73
2022/05/10 00:17:45;;;;;;;8.05;3.70;;;15.90;60.50;;;;;;5009720;28;20033;-73
2022/05/10 00:20:14;;;;;;;6.63;2.90;;;15.90;60.80;;;;;;5031923;28;20529;-72
2022/05/10 00:22:41;;;;;;;5.47;2.78;;;15.90;60.60;;;;;;5013893;28;20098;-72
2022/05/10 00:25:09;;;;;;;8.32;3.22;;;15.90;60.90;;;;;;5032061;28;20029;-73
2022/05/10 00:27:34;;;;;;;6.50;2.85;;;15.90;61.00;;;;;;5017423;28;20025;-72
2022/05/10 00:30:00;;;;;;;6.55;3.00;;;15.90;61.00;;;;;;5031810;28;20039;-70
2022/05/10 00:32:31;;;;;;;8.38;2.90;;;15.80;61.50;;;;;;5014995;28;20021;-75
2022/05/10 00:34:57;;;;;;;5.65;3.50;;;15.80;61.50;;;;;;5015840;28;20100;-70
2022/05/10 00:37:24;;;;;;;7.38;3.05;;;15.80;61.70;;;;;;5012538;28;20037;-70
2022/05/10 00:39:50;;;;;;;5.88;3.22;;;15.70;61.70;;;;;;5013184;28;20025;-72
2022/05/10 00:42:22;;;;;;;7.85;3.17;;;15.70;61.70;;;;;;5010991;28;20107;-72
2022/05/10 00:44:57;;;;;;;6.32;3.30;;;15.70;61.80;;;;;;5028794;28;20035;-72
2022/05/10 00:47:38;;;;;;;4.50;2.72;;;15.70;62.20;;;;;;5031067;28;20025;-70
2022/05/10 00:50:20;;;;;;;8.40;3.03;;;15.70;62.10;;;;;;5029063;28;20184;-70
2022/05/10 00:52:58;;;;;;;6.32;3.20;;;15.60;62.40;;;;;;5028745;28;20130;-72
2022/05/10 00:55:29;;;;;;;7.82;3.45;;;15.60;62.60;;;;;;5014130;28;20033;-70
2022/05/10 00:57:58;;;;;;;;;;;15.60;62.80;;;;;;5014113;28;20030;-71
2022/05/10 01:00:26;;;;;;;8.38;3.35;;;15.60;62.90;;;;;;5033622;28;19956;-70
2022/05/10 01:03:12;;;;;;;7.78;3.65;;;15.50;63.20;;;;;;5029372;28;20038;-70
2022/05/10 01:06:08;;;;;;;6.30;3.10;;;15.50;63.20;;;;;;5028154;28;20049;-71
2022/05/10 01:09:07;;;;;;;11.18;3.30;;;15.50;63.50;;;;;;5016456;28;20086;-72
2022/05/10 01:11:36;;;;;;;7.88;3.42;;;15.50;63.80;;;;;;5029332;28;20056;-70
2022/05/10 01:14:12;;;;;;;7.45;3.35;;;15.40;63.80;;;;;;5027877;28;20037;-72
2022/05/10 01:16:38;;;;;;;6.70;3.03;;;15.40;63.80;;;;;;5012537;28;20110;-70
2022/05/10 01:19:04;;;;;;;5.90;2.90;;;15.40;64.40;;;;;;5010116;28;20497;-70
2022/05/10 01:21:55;;;;;;;9.30;3.40;;;15.30;64.30;;;;;;5008351;28;20462;-72
2022/05/10 01:24:46;;;;;;;10.18;3.90;;;15.30;64.10;;;;;;5011548;28;20959;-70
2022/05/10 01:27:46;;;;;;;8.68;3.17;;;15.30;64.40;;;;;;5010336;28;20037;-72
2022/05/10 01:30:27;;;;;;;7.28;3.10;;;15.30;64.50;;;;;;5012623;28;20393;-70
2022/05/10 01:35:43;;;;;;;6.22;3.70;;;15.20;64.90;;;;;;5032097;28;20039;-70
2022/05/10 01:38:39;;;;;;;8.80;3.42;;;15.20;65.00;;;;;;5012592;28;20029;-70
2022/05/10 01:41:31;;;;;;;9.07;3.70;;;15.20;65.00;;;;;;5028620;28;20642;-72
2022/05/10 01:44:04;;;;;;;6.90;3.40;;;15.20;65.00;;;;;;5028303;28;20045;-73
2022/05/10 01:46:31;;;;;;;7.78;3.55;;;15.20;65.20;;;;;;5012598;28;20117;-72
2022/05/10 01:49:17;;;;;;;8.38;3.47;;;15.20;65.30;;;;;;5012413;28;20036;-72
2022/05/10 01:51:55;;;;;;;6.78;3.20;;;15.20;65.40;;;;;;5012149;28;20152;-72
2022/05/10 01:54:39;;;;;;;7.03;3.47;;;15.20;65.70;;;;;;5014454;28;20073;-72
2022/05/10 01:57:10;;;;;;;6.25;3.33;;;15.20;66.00;;;;;;5007571;28;20493;-73
2022/05/10 01:59:37;;;;;;;6.63;3.20;;;15.10;65.90;;;;;;5012457;28;20481;-72
2022/05/10 02:02:05;;;;;;;7.00;3.22;;;15.10;65.90;;;;;;5023489;28;20032;-72
2022/05/10 02:04:34;;;;;;;8.68;3.67;;;15.10;66.20;;;;;;5013748;28;20024;-73
2022/05/10 02:07:13;;;;;;;7.07;3.35;;;15.10;66.30;;;;;;5010790;28;20029;-70
2022/05/10 02:10:05;;;;;;;6.72;2.72;;;15.10;66.50;;;;;;5031982;28;20025;-70
2022/05/10 02:12:53;;;;;;;9.10;3.38;;;15.10;66.50;;;;;;5028642;28;20059;-69
2022/05/10 02:15:45;;;;;;;7.82;3.30;;;15.00;66.50;;;;;;5013444;28;20030;-72
2022/05/10 02:18:42;;;;;;;6.03;3.38;;;15.00;66.70;;;;;;5007300;28;20583;-72
2022/05/10 02:21:25;;;;;;;6.30;3.10;;;15.10;66.80;;;;;;5016263;28;20029;-72
2022/05/10 02:24:27;;;;;;;7.53;3.30;;;15.10;67.10;;;;;;5009688;28;20887;-70
2022/05/10 02:27:05;;;;;;;6.90;3.10;;;15.00;67.50;;;;;;5030445;28;20452;-70
2022/05/10 02:29:59;;;;;;;7.60;3.58;;;14.90;67.50;;;;;;5013482;28;20136;-70
2022/05/10 02:35:20;;;;;;;5.50;3.33;;;15.00;67.80;;;;;;5030528;28;20124;-70
2022/05/10 02:37:46;;;;;;;8.07;3.67;;;14.90;68.10;;;;;;5012808;28;20261;-70
2022/05/10 02:40:14;;;;;;;7.35;3.08;;;14.90;68.30;;;;;;5015386;28;20038;-71
2022/05/10 02:42:41;;;;;;;7.72;3.28;;;14.90;68.30;;;;;;5034655;28;20037;-72
2022/05/10 02:45:08;;;;;;;8.20;3.65;;;14.90;68.60;;;;;;5032263;28;20030;-73
2022/05/10 02:47:40;;;;;;;5.18;3.35;;;14.90;68.80;;;;;;5010429;28;20665;-74
2022/05/10 02:50:14;;;;;;;8.07;3.13;;;14.90;69.00;;;;;;5024343;28;20079;-72
2022/05/10 02:52:41;;;;;;;7.60;3.20;;;14.90;68.90;;;;;;5023353;28;20545;-70
2022/05/10 02:55:22;;;;;;;11.25;3.65;;;14.90;69.10;;;;;;5004864;28;20042;-71
2022/05/10 02:57:51;;;;;;;5.28;3.17;;;14.90;69.10;;;;;;5024597;28;20517;-70
2022/05/10 03:00:17;;;;;;;9.32;3.83;;;14.90;69.10;;;;;;5031255;28;20055;-72
2022/05/10 03:02:48;;;;;;;6.78;3.17;;;14.90;69.10;;;;;;5031827;28;20033;-72
2022/05/10 03:05:14;;;;;;;5.38;2.97;;;14.90;69.50;;;;;;5035229;28;20037;-74
2022/05/10 03:07:44;;;;;;;8.75;3.35;;;14.90;69.80;;;;;;5007926;28;20072;-71
2022/05/10 03:10:10;;;;;;;6.88;3.70;;;14.90;70.20;;;;;;5014270;28;20498;-71
2022/05/10 03:12:36;;;;;;;5.82;3.67;;;14.80;70.50;;;;;;5024250;28;20116;-72
2022/05/10 03:15:04;;;;;;;10.85;3.65;;;14.80;70.60;;;;;;5019895;28;20053;-70
2022/05/10 03:17:30;;;;;;;15.85;4.00;;;14.80;70.80;;;;;;5034083;28;20034;-72
2022/05/10 03:19:56;;;;;;;5.70;3.15;;;14.80;71.10;;;;;;5014403;28;20036;-72
2022/05/10 03:22:21;;;;;;;8.43;3.72;;;14.80;71.10;;;;;;5014205;28;20029;-71
2022/05/10 03:24:47;;;;;;;5.75;3.22;;;14.70;71.60;;;;;;5016294;28;20091;-71
2022/05/10 03:27:13;;;;;;;9.95;3.58;;;14.70;71.80;;;;;;5027470;28;20025;-74
2022/05/10 03:29:40;;;;;;;8.23;3.92;;;14.70;72.20;;;;;;5008364;28;20504;-73
2022/05/10 03:32:07;;;;;;;7.65;3.90;;;14.70;72.30;;;;;;5034341;28;20033;-73
2022/05/10 03:37:17;;;;;;;7.45;3.70;;;14.70;72.80;;;;;;5034694;28;20078;-72
2022/05/10 03:39:43;;;;;;;8.13;3.75;;;14.70;72.80;;;;;;5026108;28;20615;-72
2022/05/10 03:42:09;;;;;;;7.43;3.60;;;14.70;73.20;;;;;;5034105;28;20128;-72
2022/05/10 03:44:35;;;;;;;6.43;3.53;;;14.70;73.60;;;;;;5032223;28;20404;-73
2022/05/10 03:47:00;;;;;;;5.95;3.50;;;14.70;73.60;;;;;;4999562;28;20034;-73
2022/05/10 03:49:27;;;;;;;7.10;3.60;;;14.60;73.70;;;;;;5013238;28;20033;-70
2022/05/10 03:51:54;;;;;;;8.02;3.67;;;14.70;74.50;;;;;;5029189;28;20109;-72
2022/05/10 03:54:24;;;;;;;5.88;3.35;;;14.60;74.50;;;;;;5035713;28;20026;-74
2022/05/10 03:56:51;;;;;;;5.07;3.45;;;14.70;75.00;;;;;;5032415;28;20503;-73
2022/05/10 03:59:18;;;;;;;6.85;3.60;;;14.70;75.10;;;;;;5029706;28;20184;-73
2022/05/10 04:01:45;;;;;;;7.90;3.88;;;14.70;75.60;;;;;;5028868;28;20712;-72
2022/05/10 04:04:10;;;;;;;8.30;3.80;;;14.70;75.60;;;;;;5011575;28;20039;-70
2022/05/10 04:06:36;;;;;;;7.03;3.15;;;14.70;76.40;;;;;;5015470;28;20400;-72
2022/05/10 04:09:03;;;;;;;7.68;3.60;;;14.70;76.80;;;;;;5017136;28;20033;-70
2022/05/10 04:11:29;;;;;;;11.07;3.38;;;14.70;76.80;;;;;;5014195;28;20029;-72
2022/05/10 04:13:55;;;;;;;5.25;3.08;;;14.70;77.30;;;;;;5003602;28;20541;-74
2022/05/10 04:16:22;;;;;;;9.15;3.90;;;14.70;77.20;;;;;;5003647;28;20028;-71
2022/05/10 04:18:47;;;;;;;6.10;3.60;;;14.70;78.00;;;;;;4999750;28;20063;-71
2022/05/10 04:21:14;;;;;;;8.00;4.03;;;14.70;78.20;;;;;;5012150;28;20037;-74
2022/05/10 04:23:40;;;;;;;8.18;3.63;;;14.70;78.90;;;;;;5011153;28;20034;-73
2022/05/10 04:26:09;;;;;;;6.43;3.60;;;14.70;78.90;;;;;;5004137;28;20567;-73
2022/05/10 04:28:36;;;;;;;8.00;3.97;;;14.70;79.30;;;;;;5008806;28;20041;-73
2022/05/10 04:31:04;;;;;;;7.45;3.53;;;14.80;79.60;;;;;;5016540;28;20068;-70
2022/05/10 04:33:30;;;;;;;10.52;4.68;;;14.80;79.70;;;;;;5003932;28;20559;-71
2022/05/10 04:35:57;;;;;;;9.07;4.00;;;14.80;80.10;;;;;;5026146;28;20029;-70
2022/05/10 04:38:23;;;;;;;6.15;3.47;;;14.90;80.40;;;;;;5033487;28;20029;-72
2022/05/10 04:43:36;;;;;;;9.18;4.43;;;14.90;81.30;;;;;;5023997;28;20061;-70
2022/05/10 04:46:02;;;;;;;10.82;4.30;;;14.90;81.60;;;;;;5021420;28;20068;-71
2022/05/10 04:48:28;;;;;;;7.85;3.85;;;15.00;81.80;;;;;;5031024;28;20023;-71
2022/05/10 04:50:54;;;;;;;12.73;4.43;;;15.00;82.00;;;;;;4991645;28;20032;-70
2022/05/10 04:53:20;;;;;;;9.07;3.85;;;15.00;82.20;;;;;;4993363;28;20484;-70
2022/05/10 04:55:48;;;;;;;5.95;4.00;;;15.00;82.20;;;;;;4999142;28;20045;-71
2022/05/10 04:58:15;;;;;;;7.63;4.20;;;15.10;82.60;;;;;;5000990;28;20030;-70
2022/05/10 05:00:40;;;;;;;6.22;4.05;;;15.10;83.20;;;;;;5005839;28;20038;-70
2022/05/10 05:03:06;;;;;;;5.55;3.67;;;15.10;83.30;;;;;;5004504;28;20392;-71
2022/05/10 05:05:32;;;;;;;7.70;4.07;;;15.10;83.20;;;;;;5017641;28;20458;-71
2022/05/10 05:07:59;;;;;;;10.20;3.97;;;15.20;83.50;;;;;;5001974;28;20044;-70
2022/05/10 05:10:25;;;;;;;6.85;4.22;;;15.20;83.60;;;;;;4995519;28;20029;-72
2022/05/10 05:12:51;;;;;;;7.88;3.53;;;15.30;83.70;;;;;;5031822;28;20500;-74
2022/05/10 05:15:17;;;;;;;14.02;4.38;;;15.30;84.20;;;;;;5012065;28;20029;-74
2022/05/10 05:17:49;;;;;;;8.50;4.18;;;15.30;84.50;;;;;;5009265;28;20559;-75
2022/05/10 05:20:14;;;;;;;6.93;4.30;;;15.20;84.50;;;;;;4988607;28;20140;-70
2022/05/10 05:22:40;;;;;;;8.48;4.00;;;15.20;85.20;;;;;;5001243;28;20060;-72
2022/05/10 05:25:07;;;;;;;11.65;5.05;;;15.30;85.70;;;;;;5013165;28;20116;-77
2022/05/10 05:27:35;;;;;;;9.70;4.65;;;15.20;85.80;;;;;;4970217;28;20037;-72
2022/05/10 05:30:01;;;;;;;9.85;4.93;;;15.30;86.10;;;;;;5006866;28;20129;-72
2022/05/10 05:32:34;;;;;;;8.00;4.30;;;15.20;86.40;;;;;;5010293;28;20117;-71
2022/05/10 05:35:00;;;;;;;13.13;4.90;;;15.20;86.70;;;;;;5012020;28;20056;-71
2022/05/10 05:37:32;;;;;;;6.63;4.07;;;15.20;87.00;;;;;;5011476;28;20040;-72
2022/05/10 05:40:02;;;;;;;11.02;4.60;;;15.20;87.20;;;;;;5007617;28;20029;-70
2022/05/10 05:42:28;;;;;;;8.80;4.65;;;15.30;87.80;;;;;;5018080;28;20025;-73
2022/05/10 05:44:55;;;;;;;9.70;4.30;;;15.30;87.70;;;;;;5009098;28;20378;-72
2022/05/10 05:47:21;;;;;;;14.45;4.78;;;15.40;88.10;;;;;;5018350;28;20077;-72
2022/05/10 05:49:47;;;;;;;8.02;4.13;;;15.50;88.20;;;;;;5003279;28;20030;-71
2022/05/10 05:52:17;;;;;;;8.98;4.93;;;15.50;88.40;;;;;;5031838;28;20030;-72
2022/05/10 05:54:44;;;;;;;8.75;4.57;;;15.60;88.20;;;;;;5020711;28;20040;-71
2022/05/10 05:57:09;;;;;;;8.20;4.63;;;15.60;88.40;;;;;;5001558;28;20033;-71
2022/05/10 05:59:35;;;;;;;6.82;4.05;;;15.60;88.50;;;;;;5031021;28;20041;-73
2022/05/10 06:02:01;;;;;;;7.47;4.32;;;15.70;88.50;;;;;;5003529;28;20068;-73
2022/05/10 06:04:27;;;;;;;9.10;4.22;;;15.70;88.50;;;;;;5028154;28;20143;-72
2022/05/10 06:06:52;;;;;;;7.07;4.68;;;15.80;88.70;;;;;;5024624;28;20477;-71
2022/05/10 06:09:22;;;;;;;14.55;5.78;;;15.90;88.70;;;;;;5001043;28;20034;-72
2022/05/10 06:11:51;;;;;;;10.23;5.00;;;15.90;89.30;;;;;;5011497;28;20037;-71
2022/05/10 06:14:18;;;;;;;8.10;5.13;;;16.00;90.00;;;;;;4988306;28;20264;-71
2022/05/10 06:16:43;;;;;;;7.85;4.40;;;16.10;89.50;;;;;;5012632;28;20075;-72
2022/05/10 06:19:14;;;;;;;9.10;5.40;;;16.10;89.20;;;;;;5010681;28;20061;-73
2022/05/10 06:21:41;;;;;;;6.88;4.80;;;16.30;89.30;;;;;;5026222;28;20029;-71
2022/05/10 06:24:08;;;;;;;7.93;4.38;;;16.30;88.60;;;;;;5022512;28;20048;-72
2022/05/10 06:26:34;;;;;;;7.43;4.15;;;16.40;89.00;;;;;;4997145;28;21167;-74
2022/05/10 06:29:00;;;;;;;8.45;4.70;;;16.50;89.40;;;;;;5013891;28;20432;-74
2022/05/10 06:31:26;;;;;;;9.82;4.45;;;16.60;89.20;;;;;;5031392;28;20033;-74
2022/05/10 06:33:52;;;;;;;10.15;4.38;;;16.60;89.00;;;;;;5033043;28;20039;-74
2022/05/10 06:36:18;;;;;;;7.28;4.82;;;16.70;89.00;;;;;;5016277;28;20025;-75
2022/05/10 06:38:44;;;;;;;9.10;4.68;;;16.80;89.50;;;;;;4997613;28;20033;-74
2022/05/10 06:41:10;;;;;;;6.97;4.20;;;16.90;88.80;;;;;;5030869;28;20057;-73
2022/05/10 06:43:36;;;;;;;10.55;5.32;;;17.00;89.10;;;;;;5015262;28;20051;-73
2022/05/10 06:46:13;;;;;;;7.97;4.60;;;17.10;89.00;;;;;;5029462;28;20497;-73
2022/05/10 06:48:39;;;;;;;8.35;4.68;;;17.20;88.70;;;;;;5018032;28;20025;-74
2022/05/10 06:51:09;;;;;;;8.32;4.38;;;17.20;88.90;;;;;;5012640;28;20407;-74
2022/05/10 06:53:36;;;;;;;12.77;5.10;;;17.20;88.70;;;;;;5033576;28;20027;-73
2022/05/10 06:56:03;;;;;;;10.05;4.60;;;17.20;88.70;;;;;;5033399;28;20032;-74
2022/05/10 06:58:29;;;;;;;9.38;5.00;;;17.20;89.20;;;;;;5037591;28;20502;-74
2022/05/10 07:00:54;;;;;;;13.13;5.22;;;17.20;89.60;;;;;;5005831;28;20030;-75
2022/05/10 07:03:32;;;;;;;11.57;5.70;;;17.20;90.00;;;;;;5017875;28;20048;-74
2022/05/10 07:05:59;;;;;;;10.18;5.50;;;17.20;90.10;;;;;;5040622;28;20422;-73
2022/05/10 07:08:25;;;;;;;11.85;5.30;;;17.20;90.20;;;;;;5022480;28;20017;-72
2022/05/10 07:10:51;;;;;;;10.70;5.00;;;17.30;90.00;;;;;;5033121;28;20036;-73
2022/05/10 07:13:19;;;;;;;11.05;4.90;;;17.40;89.70;;;;;;5018773;28;20032;-74
2022/05/10 07:15:45;;;;;;;7.97;4.30;;;17.40;89.80;;;;;;5003422;28;20086;-73
2022/05/10 07:18:11;;;;;;;6.80;4.75;;;17.60;89.50;;;;;;5039077;28;20053;-73
2022/05/10 07:20:37;;;;;;;11.00;5.05;;;17.80;89.60;;;;;;5003730;28;20044;-71
2022/05/10 07:23:03;;;;;;;14.60;5.95;;;18.00;89.40;;;;;;5038059;28;20037;-70
2022/05/10 07:25:29;;;;;;;15.20;5.80;;;18.20;88.70;;;;;;5017688;28;20401;-71
2022/05/10 07:27:56;;;;;;;10.60;5.45;;;18.40;88.00;;;;;;5016924;28;20496;-71
2022/05/10 07:30:23;;;;;;;8.55;5.13;;;18.50;87.90;;;;;;5026884;28;20037;-72
2022/05/10 07:32:50;;;;;;;7.70;4.90;;;18.70;87.70;;;;;;5018947;28;20834;-72
2022/05/10 07:35:17;;;;;;;13.40;5.32;;;18.90;87.70;;;;;;5040980;28;20037;-71
2022/05/10 07:37:43;;;;;;;11.02;5.35;;;19.00;87.10;;;;;;5020355;28;20469;-70
2022/05/10 07:40:11;;;;;;;13.80;6.05;;;19.00;86.60;;;;;;5018986;28;20033;-72
2022/05/10 07:42:39;;;;;;;7.13;4.93;;;19.20;86.60;;;;;;5038579;28;20036;-70
2022/05/10 07:45:07;;;;;;;11.32;4.95;;;19.30;86.80;;;;;;5000022;28;20582;-73
2022/05/10 07:47:33;;;;;;;13.27;5.30;;;19.40;86.30;;;;;;4992067;28;20115;-72
2022/05/10 07:49:59;;;;;;;11.13;4.80;;;19.50;86.20;;;;;;5019551;28;20733;-71
2022/05/10 07:52:25;;;;;;;8.43;5.38;;;19.60;85.30;;;;;;5032146;28;20108;-71
2022/05/10 07:54:51;;;;;;;8.75;4.72;;;19.60;85.40;;;;;;5026196;28;20030;-72
2022/05/10 07:57:16;;;;;;;10.68;5.28;;;19.70;85.20;;;;;;5011170;28;20113;-71
2022/05/10 07:59:42;;;;;;;13.25;5.82;;;19.80;84.90;;;;;;5034309;28;20029;-71
2022/05/10 08:02:09;;;;;;;11.02;5.32;;;19.90;84.70;;;;;;5032905;28;20067;-71
2022/05/10 08:04:34;;;;;;;8.80;4.80;;;20.00;84.90;;;;;;5033185;28;20083;-71
2022/05/10 08:07:01;;;;;;;10.82;5.80;;;20.10;84.30;;;;;;5035486;28;20104;-70
2022/05/10 08:09:27;;;;;;;9.52;5.25;;;20.20;82.80;;;;;;5017704;28;20073;-69
2022/05/10 08:11:52;;;;;;;9.55;5.10;;;20.30;82.10;;;;;;5031005;28;20051;-71
2022/05/10 08:14:18;;;;;;;12.77;5.13;;;20.30;82.40;;;;;;5032836;28;20029;-71
2022/05/10 08:16:44;;;;;;;10.27;4.70;;;20.30;82.10;;;;;;5035326;28;20029;-71
2022/05/10 08:19:10;;;;;;;6.80;4.38;;;20.30;82.80;;;;;;5032272;28;20830;-70
2022/05/10 08:21:35;;;;;;;6.78;3.90;;;20.40;82.50;;;;;;5017237;28;20130;-70
2022/05/10 08:24:01;;;;;;;8.40;3.85;;;20.40;82.90;;;;;;5033717;28;20582;-70
2022/05/10 08:26:27;;;;;;;7.22;4.00;;;20.50;82.60;;;;;;5020181;28;20037;-69
2022/05/10 08:28:52;;;;;;;6.88;3.95;;;20.60;82.20;;;;;;5015372;28;20532;-70
2022/05/10 08:31:21;;;;;;;7.40;3.88;;;20.70;82.00;;;;;;5034159;28;20036;-70
2022/05/10 08:33:47;;;;;;;10.23;4.03;;;20.80;81.90;;;;;;5013428;28;20040;-69
2022/05/10 08:36:13;;;;;;;8.32;4.65;;;20.90;81.40;;;;;;4989662;28;20021;-70
2022/05/10 08:38:39;;;;;;;7.55;4.18;;;21.00;81.20;;;;;;5011837;28;20025;-71
2022/05/10 08:41:42;;;;;;;13.10;4.65;;;21.10;80.90;;;;;;5034736;28;20037;-73
2022/05/10 08:44:17;;;;;;;6.10;4.50;;;21.20;80.60;;;;;;5022576;28;20108;-73
2022/05/10 08:46:46;;;;;;;6.55;4.35;;;21.20;80.90;;;;;;5029341;28;20026;-73
2022/05/10 08:49:22;;;;;;;7.53;4.63;;;21.20;80.80;;;;;;5019107;28;20083;-73
2022/05/10 08:51:51;;;;;;;6.63;4.15;;;21.10;80.30;;;;;;5012146;28;20020;-73
2022/05/10 08:54:16;;;;;;;7.43;4.22;;;21.10;80.40;;;;;;5034292;28;20041;-73
2022/05/10 08:56:50;;;;;;;7.65;3.95;;;21.10;81.00;;;;;;5032763;28;20098;-73
2022/05/10 08:59:41;;;;;;;8.07;4.72;;;21.10;80.70;;;;;;5035307;28;20086;-73
2022/05/10 09:02:17;;;;;;;8.20;4.38;;;21.10;80.60;;;;;;5015313;28;20033;-73
2022/05/10 09:05:10;;;;;;;6.43;4.03;;;21.10;81.00;;;;;;5037895;28;20091;-73
2022/05/10 09:08:04;;;;;;;5.43;3.72;;;21.20;80.60;;;;;;5035204;28;20033;-74
2022/05/10 09:10:43;;;;;;;7.07;3.72;;;21.10;80.60;;;;;;5016560;28;20359;-73
2022/05/10 09:13:14;;;;;;;7.43;4.55;;;21.20;80.80;;;;;;5024964;28;20033;-73
2022/05/10 09:15:50;;;;;;;9.45;4.07;;;21.20;80.50;;;;;;5016256;28;20025;-73
2022/05/10 09:18:36;;;;;;;6.00;4.20;;;21.40;80.80;;;;;;5034752;28;20037;-74
2022/05/10 09:21:27;;;;;;;6.00;4.20;;;21.60;80.40;;;;;;5033833;28;20049;-73
2022/05/10 09:24:11;;;;;;;8.38;4.43;;;21.80;79.30;;;;;;5007580;28;20031;-73
2022/05/10 09:26:41;;;;;;;5.97;4.47;;;21.90;77.90;;;;;;5028567;28;20021;-74
2022/05/10 09:29:36;;;;;;;6.55;4.28;;;22.10;78.50;;;;;;5011772;28;20037;-73
2022/05/10 09:35:09;;;;;;;7.38;4.30;;;22.10;76.90;;;;;;5031093;28;20071;-73
2022/05/10 09:37:44;;;;;;;12.02;4.38;;;22.00;76.50;;;;;;5003371;28;20037;-72
2022/05/10 09:40:24;;;;;;;8.48;4.25;;;22.10;76.20;;;;;;5034035;28;20056;-73
2022/05/10 09:42:53;;;;;;;9.47;4.23;;;22.30;75.20;;;;;;5034850;28;20044;-70
2022/05/10 09:45:26;;;;;;;6.13;3.55;;;22.40;74.00;;;;;;5033915;28;20190;-71
2022/05/10 09:48:11;;;;;;;8.90;3.45;;;22.50;73.10;;;;;;5033502;28;20060;-72
2022/05/10 09:50:46;;;;;;;8.30;4.03;;;22.70;72.90;;;;;;5028722;28;20052;-71
2022/05/10 09:53:21;;;;;;;10.95;4.13;;;22.80;70.80;;;;;;5014246;28;20476;-71
2022/05/10 09:55:58;;;;;;;6.47;3.70;;;22.80;69.70;;;;;;5034799;28;20497;-70
2022/05/10 09:58:29;;;;;;;4.65;3.28;;;22.90;69.60;;;;;;5033125;28;20025;-70
2022/05/10 10:00:56;;;;;;;7.00;3.95;;;22.90;69.80;;;;;;5017751;28;20446;-71
2022/05/10 10:03:29;;;;;;;5.60;3.88;;;22.80;69.50;;;;;;5035457;28;20068;-70
2022/05/10 10:06:12;;;;;;;5.00;3.38;;;22.90;69.40;;;;;;5033971;28;20037;-69
2022/05/10 10:08:58;;;;;;;6.30;3.20;;;23.00;69.70;;;;;;5033003;28;20035;-72
2022/05/10 10:11:33;;;;;;;6.00;3.03;;;23.20;66.30;;;;;;5033156;28;20060;-71
2022/05/10 10:14:08;;;;;;;5.57;3.35;;;23.40;67.60;;;;;;5029987;28;20037;-70
2022/05/10 10:16:50;;;;;;;5.20;2.72;;;23.40;67.40;;;;;;5013703;28;20556;-71
2022/05/10 10:19:21;;;;;;;6.88;3.13;;;23.40;66.80;;;;;;5027396;28;20059;-71
2022/05/10 10:21:48;;;;;;;5.93;3.17;;;23.40;67.00;;;;;;5028384;28;20040;-71
2022/05/10 10:24:40;;;;;;;5.50;3.45;;;23.40;65.70;;;;;;5013544;28;20064;-71
2022/05/10 10:27:15;;;;;;;7.88;3.13;;;23.50;65.60;;;;;;5007655;28;20044;-72
2022/05/10 10:29:53;;;;;;;8.10;2.95;;;23.70;65.30;;;;;;5028233;28;20493;-71
2022/05/10 10:32:33;;;;;;;5.15;3.22;;;23.70;63.80;;;;;;5035947;28;20488;-70
2022/05/10 10:35:23;;;;;;;9.05;3.20;;;23.70;63.80;;;;;;5032329;28;20029;-70
2022/05/10 10:37:58;;;;;;;11.25;2.60;;;23.60;62.30;;;;;;5013732;28;20048;-72
2022/05/10 10:40:30;;;;;;;14.18;2.85;;;23.70;61.90;;;;;;5012045;28;20033;-71
2022/05/10 10:43:38;;;;;;;9.73;2.95;;;23.80;61.00;;;;;;5032766;28;20094;-70
2022/05/10 10:46:12;;;;;;;6.57;2.30;;;24.00;60.80;;;;;;5029960;28;20025;-71
2022/05/10 10:48:48;;;;;;;5.38;2.40;;;24.30;61.30;;;;;;5014440;28;20085;-71
2022/05/10 10:51:16;;;;;;;6.70;2.38;;;24.60;62.90;;;;;;5027837;28;20061;-71
2022/05/10 10:53:44;;;;;;;11.93;3.08;;;24.90;61.60;;;;;;5027284;28;20030;-70
2022/05/10 10:56:21;;;;;;;11.98;2.75;;;25.10;58.70;;;;;;5029429;28;20548;-71
2022/05/10 10:58:46;;;;;;;9.02;3.03;;;25.30;56.20;;;;;;5010988;28;20083;-71
2022/05/10 11:01:31;;;;;;;6.97;2.80;;;25.40;57.10;;;;;;5014148;28;20428;-70
2022/05/10 11:04:04;;;;;;;8.85;2.53;;;25.60;56.10;;;;;;5011285;28;20041;-72
2022/05/10 11:06:53;;;;;;;6.55;2.50;;;25.80;55.20;;;;;;5024892;28;20029;-71
2022/05/10 11:09:51;;;;;;;3.95;2.38;;;25.90;54.50;;;;;;5014432;28;20156;-70
2022/05/10 11:12:35;;;;;;;6.05;2.75;;;26.00;55.30;;;;;;5001358;28;20462;-71
2022/05/10 11:15:18;;;;;;;5.55;2.50;;;26.10;55.10;;;;;;5016738;28;20048;-72
2022/05/10 11:17:53;;;;;;;6.25;2.55;;;26.50;55.00;;;;;;5025123;28;20029;-70
2022/05/10 11:20:44;;;;;;;5.97;2.38;;;27.40;52.90;;;;;;5009197;28;20029;-70
2022/05/10 11:23:22;;;;;;;6.53;2.40;;;28.20;51.90;;;;;;5009534;28;20044;-71
2022/05/10 11:25:48;;;;;;;4.47;2.30;;;28.50;49.70;;;;;;5013933;28;20120;-73
2022/05/10 11:28:38;;;;;;;7.07;2.70;;;28.30;48.70;;;;;;5030751;28;20163;-72
2022/05/10 11:31:33;;;;;;;6.90;2.22;;;28.10;48.20;;;;;;5009795;28;20029;-74
2022/05/10 11:34:40;;;;;;;4.35;2.28;;;28.00;48.90;;;;;;5028655;28;20033;-72
2022/05/10 11:37:12;;;;;;;8.57;2.60;;;27.80;49.00;;;;;;5026725;28;20068;-73
2022/05/10 11:40:03;;;;;;;6.07;2.70;;;27.50;49.20;;;;;;5026106;28;20473;-74
2022/05/10 11:42:35;;;;;;;5.28;2.55;;;27.70;49.00;;;;;;5016386;28;20060;-72
2022/05/10 11:45:19;;;;;;;10.88;2.55;;;27.80;48.40;;;;;;5032600;28;20029;-73
2022/05/10 11:48:03;;;;;;;11.38;2.70;;;27.80;47.40;;;;;;5014138;28;20385;-73
2022/05/10 11:54:13;;;;;;;7.22;3.00;;;27.70;46.80;;;;;;5035179;28;20026;-74
2022/05/10 11:56:40;;;;;;;6.07;2.53;;;27.50;47.40;;;;;;5031208;28;20044;-74
2022/05/10 11:59:13;;;;;;;5.43;2.35;;;27.30;48.70;;;;;;5036025;28;20093;-73
2022/05/10 12:01:48;;;;;;;7.13;2.30;;;27.30;48.20;;;;;;5014336;28;20428;-75
2022/05/10 12:04:36;;;;;;;8.13;3.10;;;27.40;48.20;;;;;;5012851;28;20158;-72
2022/05/10 12:07:20;;;;;;;16.20;3.33;;;27.50;48.90;;;;;;5009250;28;20044;-73
2022/05/10 12:10:03;;;;;;;8.05;3.25;;;27.40;48.90;;;;;;5002552;28;20037;-72
2022/05/10 12:12:32;;;;;;;9.38;4.10;;;27.10;49.20;;;;;;4997027;28;20640;-71
2022/05/10 12:21:29;;;;;;;43.40;3.90;;;27.00;49.00;;;;;;5029509;28;20033;-71
2022/05/10 12:24:06;;;;;;;10.48;3.17;;;27.00;48.80;;;;;;5013194;28;20035;-73
2022/05/10 12:26:43;;;;;;;12.45;3.75;;;27.30;49.00;;;;;;5026772;28;20315;-73
2022/05/10 12:29:36;;;;;;;6.85;3.45;;;27.30;49.20;;;;;;5034105;28;20029;-73
2022/05/10 12:32:21;;;;;;;4.85;2.90;;;27.20;50.00;;;;;;5014726;28;20029;-71
2022/05/10 12:34:57;;;;;;;7.13;3.60;;;26.90;50.00;;;;;;5036509;28;20041;-71
2022/05/10 12:37:29;;;;;;;6.43;3.15;;;26.50;50.40;;;;;;5033134;28;20063;-73
2022/05/10 12:40:02;;;;;;;6.05;3.28;;;26.50;50.40;;;;;;5034564;28;20686;-72
2022/05/10 12:42:45;;;;;;;7.13;2.85;;;26.40;50.30;;;;;;5015373;28;20060;-73
2022/05/10 12:45:19;;;;;;;6.10;3.05;;;26.20;50.50;;;;;;5012063;28;20521;-70
2022/05/10 12:48:03;;;;;;;7.28;2.97;;;25.90;51.00;;;;;;5029683;28;20061;-70
2022/05/10 12:50:44;;;;;;;7.28;3.22;;;25.60;51.40;;;;;;5031900;28;20033;-72
2022/05/10 12:53:24;;;;;;;7.43;3.28;;;25.50;52.70;;;;;;5035438;28;20021;-72
2022/05/10 12:55:51;;;;;;;15.00;4.35;;;25.30;52.90;;;;;;5011931;28;20057;-74
2022/05/10 12:58:17;;;;;;;12.23;4.32;;;25.10;54.00;;;;;;5031683;28;20136;-71
2022/05/10 13:00:48;;;;;;;14.57;4.85;;;25.00;54.20;;;;;;5031680;28;20112;-72
2022/05/10 13:03:22;;;;;;;9.40;3.80;;;24.90;54.60;;;;;;5033553;28;20029;-73
2022/05/10 13:06:10;;;;;;;7.07;3.78;;;24.70;54.80;;;;;;5011334;28;20514;-73
2022/05/10 13:09:00;;;;;;;6.95;3.30;;;24.70;55.10;;;;;;5031608;28;20590;-71
2022/05/10 13:11:44;;;;;;;8.18;4.80;;;24.70;55.80;;;;;;5031001;28;20066;-72
2022/05/10 13:14:11;;;;;;;5.90;4.28;;;24.60;56.10;;;;;;5028470;28;20606;-71
2022/05/10 13:16:43;;;;;;;7.13;3.85;;;24.70;55.90;;;;;;5031180;28;20037;-72
2022/05/10 13:19:08;;;;;;;5.30;3.50;;;24.70;55.80;;;;;;5027939;28;20029;-72
2022/05/10 13:21:34;;;;;;;5.65;3.72;;;24.90;56.10;;;;;;5009673;28;20378;-71
2022/05/10 13:24:10;;;;;;;9.50;4.35;;;24.90;56.60;;;;;;4999921;28;20029;-70
2022/05/10 13:26:48;;;;;;;7.35;3.85;;;24.80;56.20;;;;;;5034563;28;20044;-73
2022/05/10 13:29:14;;;;;;;7.25;3.70;;;24.70;56.30;;;;;;5032833;28;20025;-73
2022/05/10 13:31:41;;;;;;;6.55;3.60;;;24.50;56.60;;;;;;5031458;28;20030;-73
2022/05/10 13:34:13;;;;;;;7.32;4.07;;;24.40;57.40;;;;;;5033198;28;20117;-73
2022/05/10 13:36:43;;;;;;;4.72;3.10;;;24.30;57.30;;;;;;5007051;28;20036;-73